This is the latest recevied weather packets stored in our database for station/object OK3MS-5. If no packets are shown the sender has not sent any weather packets the latest 1 day(s).
| Time | Temp. | Humidity | Pressure | Rain* | Wind** | Luminosity | Snow |
|---|---|---|---|---|---|---|---|
| 1777977003 | 25° C | 35% | 1003.4 hPa | 0 mm | 0.45 m/s, 162° | 752 W/m² | - |
| 1777976705 | 25° C | 35% | 1003.6 hPa | 0 mm | 0.89 m/s, 162° | 748 W/m² | - |
| 1777976114 | 25° C | 37% | 1003.6 hPa | 0 mm | 0 m/s | 735 W/m² | - |
| 1777975804 | 24.44° C | 36% | 1003.8 hPa | 0 mm | 0 m/s | 725 W/m² | - |
| 1777975504 | 23.89° C | 38% | 1003.9 hPa | 0 mm | 0.89 m/s, 198° | 718 W/m² | - |
| 1777975203 | 24.44° C | 37% | 1003.8 hPa | 0 mm | 0 m/s | 718 W/m² | - |
| 1777974907 | 24.44° C | 37% | 1003.9 hPa | 0 mm | 1.34 m/s, 179° | 718 W/m² | - |
| 1777974604 | 24.44° C | 37% | 1003.9 hPa | 0 mm | 0.89 m/s, 179° | 714 W/m² | - |
| 1777974308 | 23.89° C | 37% | 1004.1 hPa | 0 mm | 0.45 m/s, 216° | 693 W/m² | - |
| 1777974003 | 23.33° C | 40% | 1004.3 hPa | 0 mm | 0 m/s | 690 W/m² | - |
| 1777973708 | 23.33° C | 38% | 1004.4 hPa | 0 mm | 0 m/s | 659 W/m² | - |
| 1777973404 | 22.78° C | 39% | 1004.4 hPa | 0 mm | 0.45 m/s, 254° | 701 W/m² | - |
| 1777973104 | 23.33° C | 39% | 1004.4 hPa | 0 mm | 0.45 m/s, 180° | 688 W/m² | - |
| 1777972804 | 23.33° C | 39% | 1004.4 hPa | 0 mm | 1.34 m/s, 180° | 664 W/m² | - |
| 1777972504 | 22.78° C | 39% | 1004.5 hPa | 0 mm | 0 m/s | 658 W/m² | - |
| 1777972204 | 22.78° C | 41% | 1004.6 hPa | 0 mm | 0.45 m/s, 180° | 667 W/m² | - |
| 1777971907 | 22.22° C | 39% | 1004.7 hPa | 0 mm | 0.45 m/s, 180° | 659 W/m² | - |
| 1777971605 | 22.22° C | 41% | 1004.8 hPa | 0 mm | 0 m/s | 650 W/m² | - |
| 1777971303 | 22.22° C | 40% | 1004.8 hPa | 0 mm | 0.45 m/s, 180° | 646 W/m² | - |
| 1777971004 | 22.22° C | 39% | 1004.8 hPa | 0 mm | 0 m/s | 638 W/m² | - |
| 1777970703 | 22.22° C | 40% | 1004.8 hPa | 0 mm | 0 m/s | 626 W/m² | - |
| 1777970404 | 22.22° C | 42% | 1005 hPa | 0 mm | 0.89 m/s, 144° | 616 W/m² | - |
| 1777970106 | 22.22° C | 41% | 1005 hPa | 0 mm | 0 m/s | 607 W/m² | - |
| 1777969803 | 21.67° C | 43% | 1005.1 hPa | 0 mm | 0 m/s | 596 W/m² | - |
| 1777969506 | 21.11° C | 43% | 1005.3 hPa | 0 mm | 0 m/s | 583 W/m² | - |
* Rain latest hour (hover to see other rain measurements)
** Current wind speed in m/s (hover to see current wind gust speed)